Terminal Aerodrome Forecast
Issued by NWS

Home | Current Version | Previous Version | Text Only | Print | Product List | Glossary On
Versions: 1 2 3 4 5 6 7 8 9 10 11 12 13 14 15
672
FTUS45 KMSO 250042 AAA
TAFSMN
TAF AMD
KSMN 250042Z 2501/2524 22011KT P6SM VCSH OVC080
     FM250300 23008KT P6SM -SHRA BKN050 OVC070
     FM251800 28006KT P6SM VCSH OVC060
      AMD LTD TO CLD VIS AND WIND=

USA.gov is the U.S. government's official web portal to all federal, state and local government web resources and services.